sensor_id;sensor_type;location;lat;lon;timestamp;temperature;humidity
4826;DHT22;2427;50.934;6.776;2023-04-25T00:01:38;7.00;1.00
4826;DHT22;2427;50.934;6.776;2023-04-25T00:04:04;7.00;1.00
4826;DHT22;2427;50.934;6.776;2023-04-25T00:06:32;7.00;1.00
4826;DHT22;2427;50.934;6.776;2023-04-25T00:08:58;7.00;99.90
4826;DHT22;2427;50.934;6.776;2023-04-25T00:11:23;7.00;99.90
4826;DHT22;2427;50.934;6.776;2023-04-25T00:13:49;7.00;99.90
4826;DHT22;2427;50.934;6.776;2023-04-25T00:16:18;7.00;99.90
4826;DHT22;2427;50.934;6.776;2023-04-25T00:18:44;6.90;99.90
4826;DHT22;2427;50.934;6.776;2023-04-25T00:21:11;6.90;99.90
4826;DHT22;2427;50.934;6.776;2023-04-25T00:23:37;6.90;99.90
4826;DHT22;2427;50.934;6.776;2023-04-25T00:26:04;6.90;99.90
4826;DHT22;2427;50.934;6.776;2023-04-25T00:28:30;6.90;99.90
4826;DHT22;2427;50.934;6.776;2023-04-25T00:30:55;6.80;99.90
4826;DHT22;2427;50.934;6.776;2023-04-25T00:33:21;6.80;99.90
4826;DHT22;2427;50.934;6.776;2023-04-25T00:35:47;6.70;99.90
4826;DHT22;2427;50.934;6.776;2023-04-25T00:38:12;6.80;99.90
4826;DHT22;2427;50.934;6.776;2023-04-25T00:40:38;6.80;99.90
4826;DHT22;2427;50.934;6.776;2023-04-25T00:43:04;6.80;99.90
4826;DHT22;2427;50.934;6.776;2023-04-25T00:45:30;6.70;1.00
4826;DHT22;2427;50.934;6.776;2023-04-25T00:47:56;6.70;1.00
4826;DHT22;2427;50.934;6.776;2023-04-25T00:50:22;6.60;1.00
4826;DHT22;2427;50.934;6.776;2023-04-25T00:52:48;6.70;1.00
4826;DHT22;2427;50.934;6.776;2023-04-25T00:55:14;6.70;1.00
4826;DHT22;2427;50.934;6.776;2023-04-25T00:57:41;6.70;1.00
4826;DHT22;2427;50.934;6.776;2023-04-25T01:10:33;6.80;99.90
4826;DHT22;2427;50.934;6.776;2023-04-25T01:12:59;6.80;99.90
4826;DHT22;2427;50.934;6.776;2023-04-25T01:15:27;6.80;99.90
4826;DHT22;2427;50.934;6.776;2023-04-25T01:17:53;6.80;99.90
4826;DHT22;2427;50.934;6.776;2023-04-25T01:20:22;6.80;99.90
4826;DHT22;2427;50.934;6.776;2023-04-25T01:22:52;6.70;99.90
4826;DHT22;2427;50.934;6.776;2023-04-25T01:25:19;6.60;99.90
4826;DHT22;2427;50.934;6.776;2023-04-25T01:27:45;6.60;99.90
4826;DHT22;2427;50.934;6.776;2023-04-25T01:30:11;6.60;99.90
4826;DHT22;2427;50.934;6.776;2023-04-25T01:32:41;6.50;99.90
4826;DHT22;2427;50.934;6.776;2023-04-25T01:35:14;6.50;99.90
4826;DHT22;2427;50.934;6.776;2023-04-25T01:37:41;6.50;99.90
4826;DHT22;2427;50.934;6.776;2023-04-25T01:40:11;6.50;1.00
4826;DHT22;2427;50.934;6.776;2023-04-25T01:42:42;6.50;99.90
4826;DHT22;2427;50.934;6.776;2023-04-25T01:45:08;6.40;1.00
4826;DHT22;2427;50.934;6.776;2023-04-25T01:47:43;6.50;99.90
4826;DHT22;2427;50.934;6.776;2023-04-25T01:50:10;6.50;99.90
4826;DHT22;2427;50.934;6.776;2023-04-25T01:52:36;6.50;99.90
4826;DHT22;2427;50.934;6.776;2023-04-25T01:55:05;6.50;99.90
4826;DHT22;2427;50.934;6.776;2023-04-25T01:57:44;6.50;99.90
4826;DHT22;2427;50.934;6.776;2023-04-25T02:00:10;6.50;99.90
4826;DHT22;2427;50.934;6.776;2023-04-25T02:02:36;6.60;99.90
4826;DHT22;2427;50.934;6.776;2023-04-25T02:05:07;6.60;99.90
4826;DHT22;2427;50.934;6.776;2023-04-25T02:07:38;6.60;99.90
4826;DHT22;2427;50.934;6.776;2023-04-25T02:10:08;6.60;99.90
4826;DHT22;2427;50.934;6.776;2023-04-25T02:12:56;6.60;99.90
4826;DHT22;2427;50.934;6.776;2023-04-25T02:15:33;6.60;99.90
4826;DHT22;2427;50.934;6.776;2023-04-25T02:18:15;6.60;99.90
4826;DHT22;2427;50.934;6.776;2023-04-25T02:20:49;6.60;99.90
4826;DHT22;2427;50.934;6.776;2023-04-25T02:23:23;6.60;99.90
4826;DHT22;2427;50.934;6.776;2023-04-25T02:25:52;6.60;99.90
4826;DHT22;2427;50.934;6.776;2023-04-25T02:28:27;6.60;99.90
4826;DHT22;2427;50.934;6.776;2023-04-25T02:31:01;6.60;99.90
4826;DHT22;2427;50.934;6.776;2023-04-25T02:33:45;6.60;99.90
4826;DHT22;2427;50.934;6.776;2023-04-25T02:36:31;6.50;99.90
4826;DHT22;2427;50.934;6.776;2023-04-25T02:39:03;6.50;99.90
4826;DHT22;2427;50.934;6.776;2023-04-25T02:41:35;6.50;99.90
4826;DHT22;2427;50.934;6.776;2023-04-25T02:44:18;6.50;99.90
4826;DHT22;2427;50.934;6.776;2023-04-25T02:46:47;6.50;99.90
4826;DHT22;2427;50.934;6.776;2023-04-25T02:49:13;6.50;99.90
4826;DHT22;2427;50.934;6.776;2023-04-25T02:51:47;6.50;99.90
4826;DHT22;2427;50.934;6.776;2023-04-25T02:54:28;6.50;99.90
4826;DHT22;2427;50.934;6.776;2023-04-25T02:57:09;6.40;1.00
4826;DHT22;2427;50.934;6.776;2023-04-25T02:59:42;6.50;1.00
4826;DHT22;2427;50.934;6.776;2023-04-25T03:02:11;6.40;1.00
4826;DHT22;2427;50.934;6.776;2023-04-25T03:04:52;6.40;1.00
4826;DHT22;2427;50.934;6.776;2023-04-25T03:07:23;6.40;1.00
4826;DHT22;2427;50.934;6.776;2023-04-25T03:09:52;6.40;1.00
4826;DHT22;2427;50.934;6.776;2023-04-25T03:12:26;6.40;1.00
4826;DHT22;2427;50.934;6.776;2023-04-25T03:14:57;6.40;1.00
4826;DHT22;2427;50.934;6.776;2023-04-25T03:17:26;6.40;1.00
4826;DHT22;2427;50.934;6.776;2023-04-25T03:19:55;6.40;1.00
4826;DHT22;2427;50.934;6.776;2023-04-25T03:22:25;6.40;1.00
4826;DHT22;2427;50.934;6.776;2023-04-25T03:24:54;6.40;1.00
4826;DHT22;2427;50.934;6.776;2023-04-25T03:27:27;6.40;1.00
4826;DHT22;2427;50.934;6.776;2023-04-25T03:29:55;6.40;1.00
4826;DHT22;2427;50.934;6.776;2023-04-25T03:32:30;6.40;1.00
4826;DHT22;2427;50.934;6.776;2023-04-25T03:35:08;6.40;1.00
4826;DHT22;2427;50.934;6.776;2023-04-25T03:37:34;6.40;1.00
4826;DHT22;2427;50.934;6.776;2023-04-25T03:40:20;6.40;1.00
4826;DHT22;2427;50.934;6.776;2023-04-25T03:42:48;6.50;1.00
4826;DHT22;2427;50.934;6.776;2023-04-25T03:48:20;6.40;1.00
4826;DHT22;2427;50.934;6.776;2023-04-25T03:50:57;6.40;1.00
4826;DHT22;2427;50.934;6.776;2023-04-25T03:53:23;6.40;1.00
4826;DHT22;2427;50.934;6.776;2023-04-25T03:55:54;6.50;1.00
4826;DHT22;2427;50.934;6.776;2023-04-25T03:58:33;6.50;1.00
4826;DHT22;2427;50.934;6.776;2023-04-25T04:00:59;6.50;1.00
4826;DHT22;2427;50.934;6.776;2023-04-25T04:03:28;6.50;1.00
4826;DHT22;2427;50.934;6.776;2023-04-25T04:06:00;6.40;1.00
4826;DHT22;2427;50.934;6.776;2023-04-25T04:08:29;6.50;1.00
4826;DHT22;2427;50.934;6.776;2023-04-25T04:11:01;6.40;1.00
4826;DHT22;2427;50.934;6.776;2023-04-25T04:13:36;6.40;1.00
4826;DHT22;2427;50.934;6.776;2023-04-25T04:16:07;6.40;2.60
4826;DHT22;2427;50.934;6.776;2023-04-25T04:18:38;6.40;10.80
4826;DHT22;2427;50.934;6.776;2023-04-25T04:21:04;6.30;99.90
4826;DHT22;2427;50.934;6.776;2023-04-25T04:23:35;6.40;99.90
4826;DHT22;2427;50.934;6.776;2023-04-25T04:26:07;6.30;99.90
4826;DHT22;2427;50.934;6.776;2023-04-25T04:28:46;6.30;99.90
4826;DHT22;2427;50.934;6.776;2023-04-25T04:31:11;6.30;99.90
4826;DHT22;2427;50.934;6.776;2023-04-25T04:33:38;6.30;99.90
4826;DHT22;2427;50.934;6.776;2023-04-25T04:36:03;6.30;99.90
4826;DHT22;2427;50.934;6.776;2023-04-25T04:38:35;6.20;99.90
4826;DHT22;2427;50.934;6.776;2023-04-25T04:41:01;6.30;1.00
4826;DHT22;2427;50.934;6.776;2023-04-25T04:43:28;6.30;1.00
4826;DHT22;2427;50.934;6.776;2023-04-25T04:45:55;6.20;1.00
4826;DHT22;2427;50.934;6.776;2023-04-25T04:48:22;6.20;1.00
4826;DHT22;2427;50.934;6.776;2023-04-25T04:50:47;6.30;1.00
4826;DHT22;2427;50.934;6.776;2023-04-25T04:53:13;6.30;1.00
4826;DHT22;2427;50.934;6.776;2023-04-25T04:55:39;6.30;1.00
4826;DHT22;2427;50.934;6.776;2023-04-25T04:58:07;6.40;1.00
4826;DHT22;2427;50.934;6.776;2023-04-25T05:00:35;6.40;99.90
4826;DHT22;2427;50.934;6.776;2023-04-25T05:03:00;6.40;99.90
4826;DHT22;2427;50.934;6.776;2023-04-25T05:05:26;6.50;99.90
4826;DHT22;2427;50.934;6.776;2023-04-25T05:07:52;6.50;99.90
4826;DHT22;2427;50.934;6.776;2023-04-25T05:10:18;6.50;99.90
4826;DHT22;2427;50.934;6.776;2023-04-25T05:12:44;6.60;11.30
4826;DHT22;2427;50.934;6.776;2023-04-25T05:15:10;6.60;1.00
4826;DHT22;2427;50.934;6.776;2023-04-25T05:17:38;6.60;1.00
4826;DHT22;2427;50.934;6.776;2023-04-25T05:20:09;6.70;1.00
4826;DHT22;2427;50.934;6.776;2023-04-25T05:22:39;6.60;1.00
4826;DHT22;2427;50.934;6.776;2023-04-25T05:25:07;6.70;1.00
4826;DHT22;2427;50.934;6.776;2023-04-25T05:27:33;6.70;1.00
4826;DHT22;2427;50.934;6.776;2023-04-25T05:30:11;6.80;1.00
4826;DHT22;2427;50.934;6.776;2023-04-25T05:32:43;6.80;1.00
4826;DHT22;2427;50.934;6.776;2023-04-25T05:35:26;6.80;1.00
4826;DHT22;2427;50.934;6.776;2023-04-25T05:37:52;6.90;1.00
4826;DHT22;2427;50.934;6.776;2023-04-25T05:40:24;6.90;1.00
4826;DHT22;2427;50.934;6.776;2023-04-25T05:42:55;6.90;99.90
4826;DHT22;2427;50.934;6.776;2023-04-25T05:45:21;7.00;99.90
4826;DHT22;2427;50.934;6.776;2023-04-25T05:47:52;7.10;99.90
4826;DHT22;2427;50.934;6.776;2023-04-25T05:50:21;7.30;99.90
4826;DHT22;2427;50.934;6.776;2023-04-25T05:52:49;7.60;1.00
4826;DHT22;2427;50.934;6.776;2023-04-25T05:55:15;7.70;1.00
4826;DHT22;2427;50.934;6.776;2023-04-25T05:57:41;7.80;1.00
4826;DHT22;2427;50.934;6.776;2023-04-25T06:00:08;7.70;1.00
4826;DHT22;2427;50.934;6.776;2023-04-25T06:02:35;7.70;1.00
4826;DHT22;2427;50.934;6.776;2023-04-25T06:05:03;7.80;1.00
4826;DHT22;2427;50.934;6.776;2023-04-25T06:07:38;7.90;1.00
4826;DHT22;2427;50.934;6.776;2023-04-25T06:10:04;8.00;1.00
4826;DHT22;2427;50.934;6.776;2023-04-25T06:12:42;8.10;1.00
4826;DHT22;2427;50.934;6.776;2023-04-25T06:15:11;8.00;1.00
4826;DHT22;2427;50.934;6.776;2023-04-25T06:17:36;8.00;1.00
4826;DHT22;2427;50.934;6.776;2023-04-25T06:20:10;8.10;1.00
4826;DHT22;2427;50.934;6.776;2023-04-25T06:22:41;8.10;1.00
4826;DHT22;2427;50.934;6.776;2023-04-25T06:25:07;8.20;1.00
4826;DHT22;2427;50.934;6.776;2023-04-25T06:27:40;8.20;1.00
4826;DHT22;2427;50.934;6.776;2023-04-25T06:30:06;8.20;1.00
4826;DHT22;2427;50.934;6.776;2023-04-25T06:32:32;8.20;1.00
4826;DHT22;2427;50.934;6.776;2023-04-25T06:34:59;8.20;1.00
4826;DHT22;2427;50.934;6.776;2023-04-25T06:37:25;8.20;1.00
4826;DHT22;2427;50.934;6.776;2023-04-25T06:39:51;8.20;1.00
4826;DHT22;2427;50.934;6.776;2023-04-25T06:42:16;8.20;1.00
4826;DHT22;2427;50.934;6.776;2023-04-25T06:44:42;8.20;1.00
4826;DHT22;2427;50.934;6.776;2023-04-25T06:47:07;8.40;1.00
4826;DHT22;2427;50.934;6.776;2023-04-25T06:49:33;8.50;1.00
4826;DHT22;2427;50.934;6.776;2023-04-25T06:51:59;8.60;1.00
4826;DHT22;2427;50.934;6.776;2023-04-25T06:54:24;8.60;1.00
4826;DHT22;2427;50.934;6.776;2023-04-25T06:56:52;8.70;1.00
4826;DHT22;2427;50.934;6.776;2023-04-25T06:59:18;8.60;1.00
4826;DHT22;2427;50.934;6.776;2023-04-25T07:01:44;8.70;1.00
4826;DHT22;2427;50.934;6.776;2023-04-25T07:04:09;8.70;1.00
4826;DHT22;2427;50.934;6.776;2023-04-25T07:06:35;8.80;1.00
4826;DHT22;2427;50.934;6.776;2023-04-25T07:09:12;8.90;1.00
4826;DHT22;2427;50.934;6.776;2023-04-25T07:11:38;9.00;1.00
4826;DHT22;2427;50.934;6.776;2023-04-25T07:14:04;9.10;1.00
4826;DHT22;2427;50.934;6.776;2023-04-25T07:16:29;9.10;1.00
4826;DHT22;2427;50.934;6.776;2023-04-25T07:18:55;9.00;99.90
4826;DHT22;2427;50.934;6.776;2023-04-25T07:21:21;9.10;99.90
4826;DHT22;2427;50.934;6.776;2023-04-25T07:23:46;9.30;99.90
4826;DHT22;2427;50.934;6.776;2023-04-25T07:26:12;9.30;99.90
4826;DHT22;2427;50.934;6.776;2023-04-25T07:28:37;9.50;99.90
4826;DHT22;2427;50.934;6.776;2023-04-25T07:31:03;9.50;99.90
4826;DHT22;2427;50.934;6.776;2023-04-25T07:33:29;9.60;99.90
4826;DHT22;2427;50.934;6.776;2023-04-25T07:35:55;9.50;99.90
4826;DHT22;2427;50.934;6.776;2023-04-25T07:38:21;9.50;99.90
4826;DHT22;2427;50.934;6.776;2023-04-25T07:40:48;9.60;99.90
4826;DHT22;2427;50.934;6.776;2023-04-25T07:43:13;9.50;99.90
4826;DHT22;2427;50.934;6.776;2023-04-25T07:45:42;9.60;99.90
4826;DHT22;2427;50.934;6.776;2023-04-25T07:48:07;9.50;99.90
4826;DHT22;2427;50.934;6.776;2023-04-25T07:50:33;9.40;99.90
4826;DHT22;2427;50.934;6.776;2023-04-25T07:52:59;9.30;99.90
4826;DHT22;2427;50.934;6.776;2023-04-25T07:55:24;9.30;99.90
4826;DHT22;2427;50.934;6.776;2023-04-25T07:57:50;9.40;99.90
4826;DHT22;2427;50.934;6.776;2023-04-25T08:00:16;9.40;99.90
4826;DHT22;2427;50.934;6.776;2023-04-25T08:02:41;9.50;99.90
4826;DHT22;2427;50.934;6.776;2023-04-25T08:05:07;9.60;99.90
4826;DHT22;2427;50.934;6.776;2023-04-25T08:07:37;9.70;99.90
4826;DHT22;2427;50.934;6.776;2023-04-25T08:10:03;9.80;99.90
4826;DHT22;2427;50.934;6.776;2023-04-25T08:12:29;9.90;99.90
4826;DHT22;2427;50.934;6.776;2023-04-25T08:14:54;10.10;99.90
4826;DHT22;2427;50.934;6.776;2023-04-25T08:17:20;10.20;99.90
4826;DHT22;2427;50.934;6.776;2023-04-25T08:19:45;10.20;99.90
4826;DHT22;2427;50.934;6.776;2023-04-25T08:22:11;10.30;99.90
4826;DHT22;2427;50.934;6.776;2023-04-25T08:24:38;10.30;99.90
4826;DHT22;2427;50.934;6.776;2023-04-25T08:27:03;10.20;99.90
4826;DHT22;2427;50.934;6.776;2023-04-25T08:29:29;10.00;99.90
4826;DHT22;2427;50.934;6.776;2023-04-25T08:31:54;10.00;99.90
4826;DHT22;2427;50.934;6.776;2023-04-25T08:34:20;10.20;99.90
4826;DHT22;2427;50.934;6.776;2023-04-25T08:36:46;10.20;99.90
4826;DHT22;2427;50.934;6.776;2023-04-25T08:39:11;10.20;99.90
4826;DHT22;2427;50.934;6.776;2023-04-25T08:41:38;10.20;99.90
4826;DHT22;2427;50.934;6.776;2023-04-25T08:44:08;10.10;99.90
4826;DHT22;2427;50.934;6.776;2023-04-25T08:46:35;9.90;99.90
4826;DHT22;2427;50.934;6.776;2023-04-25T08:49:02;9.80;99.90
4826;DHT22;2427;50.934;6.776;2023-04-25T08:51:31;9.70;99.90
4826;DHT22;2427;50.934;6.776;2023-04-25T08:54:08;9.70;99.90
4826;DHT22;2427;50.934;6.776;2023-04-25T08:56:35;9.70;99.90
4826;DHT22;2427;50.934;6.776;2023-04-25T08:59:01;9.70;99.90
4826;DHT22;2427;50.934;6.776;2023-04-25T09:01:27;9.70;99.90
4826;DHT22;2427;50.934;6.776;2023-04-25T09:03:53;9.70;99.90
4826;DHT22;2427;50.934;6.776;2023-04-25T09:06:19;9.60;99.90
4826;DHT22;2427;50.934;6.776;2023-04-25T09:08:45;9.60;99.90
4826;DHT22;2427;50.934;6.776;2023-04-25T09:11:12;9.60;99.90
4826;DHT22;2427;50.934;6.776;2023-04-25T09:13:39;9.50;99.90
4826;DHT22;2427;50.934;6.776;2023-04-25T09:16:04;9.40;99.90
4826;DHT22;2427;50.934;6.776;2023-04-25T09:18:32;9.40;99.90
4826;DHT22;2427;50.934;6.776;2023-04-25T09:23:43;9.30;99.90
4826;DHT22;2427;50.934;6.776;2023-04-25T09:26:09;9.20;99.90
4826;DHT22;2427;50.934;6.776;2023-04-25T09:28:35;9.20;99.90
4826;DHT22;2427;50.934;6.776;2023-04-25T09:31:01;9.10;99.90
4826;DHT22;2427;50.934;6.776;2023-04-25T09:33:33;9.10;99.90
4826;DHT22;2427;50.934;6.776;2023-04-25T09:36:07;9.20;99.90
4826;DHT22;2427;50.934;6.776;2023-04-25T09:38:40;9.20;99.90
4826;DHT22;2427;50.934;6.776;2023-04-25T09:41:08;9.20;99.90
4826;DHT22;2427;50.934;6.776;2023-04-25T09:43:33;9.10;99.90
4826;DHT22;2427;50.934;6.776;2023-04-25T09:46:00;9.10;99.90
4826;DHT22;2427;50.934;6.776;2023-04-25T09:48:27;9.10;99.90
4826;DHT22;2427;50.934;6.776;2023-04-25T09:51:09;9.20;99.90
4826;DHT22;2427;50.934;6.776;2023-04-25T09:53:45;9.40;99.90
4826;DHT22;2427;50.934;6.776;2023-04-25T09:56:17;9.60;99.90
4826;DHT22;2427;50.934;6.776;2023-04-25T09:58:44;9.70;99.90
4826;DHT22;2427;50.934;6.776;2023-04-25T10:01:12;9.70;99.90
4826;DHT22;2427;50.934;6.776;2023-04-25T10:03:39;9.70;99.90
4826;DHT22;2427;50.934;6.776;2023-04-25T10:06:19;9.60;99.90
4826;DHT22;2427;50.934;6.776;2023-04-25T10:08:45;9.60;99.90
4826;DHT22;2427;50.934;6.776;2023-04-25T10:11:12;9.50;99.90
4826;DHT22;2427;50.934;6.776;2023-04-25T10:13:41;9.40;99.90
4826;DHT22;2427;50.934;6.776;2023-04-25T10:16:08;9.30;99.90
4826;DHT22;2427;50.934;6.776;2023-04-25T10:18:33;9.30;99.90
4826;DHT22;2427;50.934;6.776;2023-04-25T10:21:04;9.30;99.90
4826;DHT22;2427;50.934;6.776;2023-04-25T10:23:31;9.40;99.90
4826;DHT22;2427;50.934;6.776;2023-04-25T10:25:58;9.60;99.90
4826;DHT22;2427;50.934;6.776;2023-04-25T10:28:24;9.70;99.90
4826;DHT22;2427;50.934;6.776;2023-04-25T10:30:59;9.80;99.90
4826;DHT22;2427;50.934;6.776;2023-04-25T10:33:37;10.00;99.90
4826;DHT22;2427;50.934;6.776;2023-04-25T10:36:14;10.30;99.90
4826;DHT22;2427;50.934;6.776;2023-04-25T10:38:44;10.50;99.90
4826;DHT22;2427;50.934;6.776;2023-04-25T10:41:12;10.80;99.90
4826;DHT22;2427;50.934;6.776;2023-04-25T10:43:45;11.30;99.90
4826;DHT22;2427;50.934;6.776;2023-04-25T10:46:28;11.50;99.90
4826;DHT22;2427;50.934;6.776;2023-04-25T10:49:01;11.60;99.90
4826;DHT22;2427;50.934;6.776;2023-04-25T10:51:34;11.40;99.90
4826;DHT22;2427;50.934;6.776;2023-04-25T10:54:02;11.10;99.90
4826;DHT22;2427;50.934;6.776;2023-04-25T10:56:29;10.80;99.90
4826;DHT22;2427;50.934;6.776;2023-04-25T10:59:15;10.50;99.90
4826;DHT22;2427;50.934;6.776;2023-04-25T11:01:46;10.20;99.90
4826;DHT22;2427;50.934;6.776;2023-04-25T11:04:32;9.90;99.90
4826;DHT22;2427;50.934;6.776;2023-04-25T11:07:13;9.70;99.90
4826;DHT22;2427;50.934;6.776;2023-04-25T11:09:41;9.70;99.90
4826;DHT22;2427;50.934;6.776;2023-04-25T11:12:10;9.60;99.90
4826;DHT22;2427;50.934;6.776;2023-04-25T11:14:37;9.60;99.90
4826;DHT22;2427;50.934;6.776;2023-04-25T11:17:02;9.80;99.90
4826;DHT22;2427;50.934;6.776;2023-04-25T11:19:29;10.00;99.90
4826;DHT22;2427;50.934;6.776;2023-04-25T11:21:55;10.20;99.90
4826;DHT22;2427;50.934;6.776;2023-04-25T11:24:32;10.50;99.90
4826;DHT22;2427;50.934;6.776;2023-04-25T11:26:59;10.80;99.90
4826;DHT22;2427;50.934;6.776;2023-04-25T11:29:28;11.00;99.90
4826;DHT22;2427;50.934;6.776;2023-04-25T11:31:55;11.70;99.90
4826;DHT22;2427;50.934;6.776;2023-04-25T11:34:24;12.00;99.90
4826;DHT22;2427;50.934;6.776;2023-04-25T11:36:51;12.00;99.90
4826;DHT22;2427;50.934;6.776;2023-04-25T11:39:18;11.80;99.90
4826;DHT22;2427;50.934;6.776;2023-04-25T11:41:44;11.70;99.90
4826;DHT22;2427;50.934;6.776;2023-04-25T11:44:09;11.60;99.90
4826;DHT22;2427;50.934;6.776;2023-04-25T11:46:35;11.70;99.90
4826;DHT22;2427;50.934;6.776;2023-04-25T11:49:01;11.80;99.90
4826;DHT22;2427;50.934;6.776;2023-04-25T11:51:27;11.90;99.90
4826;DHT22;2427;50.934;6.776;2023-04-25T11:53:53;11.90;99.90
4826;DHT22;2427;50.934;6.776;2023-04-25T11:56:18;11.90;99.90
4826;DHT22;2427;50.934;6.776;2023-04-25T11:59:05;12.00;99.90
4826;DHT22;2427;50.934;6.776;2023-04-25T12:01:32;12.40;99.90
4826;DHT22;2427;50.934;6.776;2023-04-25T12:03:58;12.70;99.90
4826;DHT22;2427;50.934;6.776;2023-04-25T12:06:37;12.80;99.90
4826;DHT22;2427;50.934;6.776;2023-04-25T12:09:11;13.20;99.90
4826;DHT22;2427;50.934;6.776;2023-04-25T12:11:48;13.40;99.90
4826;DHT22;2427;50.934;6.776;2023-04-25T12:14:27;13.80;99.90
4826;DHT22;2427;50.934;6.776;2023-04-25T12:16:59;13.70;99.90
4826;DHT22;2427;50.934;6.776;2023-04-25T12:19:25;13.70;99.90
4826;DHT22;2427;50.934;6.776;2023-04-25T12:21:51;14.00;99.90
4826;DHT22;2427;50.934;6.776;2023-04-25T12:24:27;14.40;99.90
4826;DHT22;2427;50.934;6.776;2023-04-25T12:27:01;14.80;99.90
4826;DHT22;2427;50.934;6.776;2023-04-25T12:29:28;15.10;99.90
4826;DHT22;2427;50.934;6.776;2023-04-25T12:31:55;14.90;99.90
4826;DHT22;2427;50.934;6.776;2023-04-25T12:34:22;14.60;99.90
4826;DHT22;2427;50.934;6.776;2023-04-25T12:36:48;14.10;99.90
4826;DHT22;2427;50.934;6.776;2023-04-25T12:39:15;13.50;99.90
4826;DHT22;2427;50.934;6.776;2023-04-25T12:41:41;12.90;99.90
4826;DHT22;2427;50.934;6.776;2023-04-25T12:44:06;12.60;99.90
4826;DHT22;2427;50.934;6.776;2023-04-25T12:46:32;12.20;99.90
4826;DHT22;2427;50.934;6.776;2023-04-25T12:48:57;11.80;99.90
4826;DHT22;2427;50.934;6.776;2023-04-25T12:51:23;11.50;99.90
4826;DHT22;2427;50.934;6.776;2023-04-25T12:53:50;11.40;99.90
4826;DHT22;2427;50.934;6.776;2023-04-25T12:56:16;11.20;99.90
4826;DHT22;2427;50.934;6.776;2023-04-25T12:58:42;11.00;99.90
4826;DHT22;2427;50.934;6.776;2023-04-25T13:01:09;10.90;99.90
4826;DHT22;2427;50.934;6.776;2023-04-25T13:03:35;10.80;99.90
4826;DHT22;2427;50.934;6.776;2023-04-25T13:06:00;10.80;99.90
4826;DHT22;2427;50.934;6.776;2023-04-25T13:08:26;10.90;99.90
4826;DHT22;2427;50.934;6.776;2023-04-25T13:10:52;11.00;99.90
4826;DHT22;2427;50.934;6.776;2023-04-25T13:13:17;10.90;99.90
4826;DHT22;2427;50.934;6.776;2023-04-25T13:15:43;11.00;99.90
4826;DHT22;2427;50.934;6.776;2023-04-25T13:18:08;11.00;99.90
4826;DHT22;2427;50.934;6.776;2023-04-25T13:20:34;11.10;99.90
4826;DHT22;2427;50.934;6.776;2023-04-25T13:23:00;11.20;99.90
4826;DHT22;2427;50.934;6.776;2023-04-25T13:25:26;11.40;99.90
4826;DHT22;2427;50.934;6.776;2023-04-25T13:27:51;11.40;99.90
4826;DHT22;2427;50.934;6.776;2023-04-25T13:30:17;11.60;99.90
4826;DHT22;2427;50.934;6.776;2023-04-25T13:32:42;12.20;99.90
4826;DHT22;2427;50.934;6.776;2023-04-25T13:35:11;13.40;99.90
4826;DHT22;2427;50.934;6.776;2023-04-25T13:37:37;14.40;99.90
4826;DHT22;2427;50.934;6.776;2023-04-25T13:40:07;16.20;99.90
4826;DHT22;2427;50.934;6.776;2023-04-25T13:42:34;18.20;99.90
4826;DHT22;2427;50.934;6.776;2023-04-25T13:45:00;19.30;99.90
4826;DHT22;2427;50.934;6.776;2023-04-25T13:47:26;19.20;99.90
4826;DHT22;2427;50.934;6.776;2023-04-25T13:49:52;18.00;94.10
4826;DHT22;2427;50.934;6.776;2023-04-25T13:52:18;16.90;89.80
4826;DHT22;2427;50.934;6.776;2023-04-25T13:54:44;15.80;79.60
4826;DHT22;2427;50.934;6.776;2023-04-25T13:57:10;14.90;70.90
4826;DHT22;2427;50.934;6.776;2023-04-25T13:59:36;14.30;66.20
4826;DHT22;2427;50.934;6.776;2023-04-25T14:02:02;14.10;63.80
4826;DHT22;2427;50.934;6.776;2023-04-25T14:04:28;13.40;56.70
4826;DHT22;2427;50.934;6.776;2023-04-25T14:06:53;13.10;54.70
4826;DHT22;2427;50.934;6.776;2023-04-25T14:09:19;12.90;54.40
4826;DHT22;2427;50.934;6.776;2023-04-25T14:11:46;12.70;54.20
4826;DHT22;2427;50.934;6.776;2023-04-25T14:14:12;12.70;55.80
4826;DHT22;2427;50.934;6.776;2023-04-25T14:16:38;12.70;55.80
4826;DHT22;2427;50.934;6.776;2023-04-25T14:19:04;12.60;55.40
4826;DHT22;2427;50.934;6.776;2023-04-25T14:21:30;12.50;55.00
4826;DHT22;2427;50.934;6.776;2023-04-25T14:23:57;12.50;55.70
4826;DHT22;2427;50.934;6.776;2023-04-25T14:26:23;12.40;53.30
4826;DHT22;2427;50.934;6.776;2023-04-25T14:28:50;12.30;52.40
4826;DHT22;2427;50.934;6.776;2023-04-25T14:31:16;12.20;55.20
4826;DHT22;2427;50.934;6.776;2023-04-25T14:33:41;12.50;58.20
4826;DHT22;2427;50.934;6.776;2023-04-25T14:36:08;14.20;69.70
4826;DHT22;2427;50.934;6.776;2023-04-25T14:38:34;15.80;76.10
4826;DHT22;2427;50.934;6.776;2023-04-25T14:41:00;16.20;73.10
4826;DHT22;2427;50.934;6.776;2023-04-25T14:43:25;16.00;70.60
4826;DHT22;2427;50.934;6.776;2023-04-25T14:45:51;15.90;69.40
4826;DHT22;2427;50.934;6.776;2023-04-25T14:48:18;16.00;69.00
4826;DHT22;2427;50.934;6.776;2023-04-25T14:50:45;16.90;75.50
4826;DHT22;2427;50.934;6.776;2023-04-25T14:53:10;18.70;85.00
4826;DHT22;2427;50.934;6.776;2023-04-25T14:55:37;19.60;84.30
4826;DHT22;2427;50.934;6.776;2023-04-25T14:58:02;20.20;84.30
4826;DHT22;2427;50.934;6.776;2023-04-25T15:00:28;21.00;86.40
4826;DHT22;2427;50.934;6.776;2023-04-25T15:02:56;21.60;83.80
4826;DHT22;2427;50.934;6.776;2023-04-25T15:05:22;22.30;83.10
4826;DHT22;2427;50.934;6.776;2023-04-25T15:07:47;22.60;76.20
4826;DHT22;2427;50.934;6.776;2023-04-25T15:10:13;21.60;65.60
4826;DHT22;2427;50.934;6.776;2023-04-25T15:12:41;20.20;55.20
4826;DHT22;2427;50.934;6.776;2023-04-25T15:15:08;19.50;53.50
4826;DHT22;2427;50.934;6.776;2023-04-25T15:17:43;20.30;55.70
4826;DHT22;2427;50.934;6.776;2023-04-25T15:20:10;21.10;71.30
4826;DHT22;2427;50.934;6.776;2023-04-25T15:22:36;21.20;54.30
4826;DHT22;2427;50.934;6.776;2023-04-25T15:25:03;21.70;55.60
4826;DHT22;2427;50.934;6.776;2023-04-25T15:27:29;21.80;52.00
4826;DHT22;2427;50.934;6.776;2023-04-25T15:29:55;21.90;50.40
4826;DHT22;2427;50.934;6.776;2023-04-25T15:32:21;22.90;51.80
4826;DHT22;2427;50.934;6.776;2023-04-25T15:34:47;23.60;52.40
4826;DHT22;2427;50.934;6.776;2023-04-25T15:37:13;23.60;47.80
4826;DHT22;2427;50.934;6.776;2023-04-25T15:39:38;23.30;42.30
4826;DHT22;2427;50.934;6.776;2023-04-25T15:42:04;23.40;41.40
4826;DHT22;2427;50.934;6.776;2023-04-25T15:44:30;23.40;38.30
4826;DHT22;2427;50.934;6.776;2023-04-25T15:46:55;24.10;39.40
4826;DHT22;2427;50.934;6.776;2023-04-25T15:49:21;23.50;34.10
4826;DHT22;2427;50.934;6.776;2023-04-25T15:51:47;21.70;26.00
4826;DHT22;2427;50.934;6.776;2023-04-25T15:54:13;19.80;20.80
4826;DHT22;2427;50.934;6.776;2023-04-25T15:56:38;18.40;17.80
4826;DHT22;2427;50.934;6.776;2023-04-25T15:59:04;17.20;13.70
4826;DHT22;2427;50.934;6.776;2023-04-25T16:01:30;16.20;9.90
4826;DHT22;2427;50.934;6.776;2023-04-25T16:03:57;15.50;7.90
4826;DHT22;2427;50.934;6.776;2023-04-25T16:06:26;14.90;6.00
4826;DHT22;2427;50.934;6.776;2023-04-25T16:08:51;14.70;6.90
4826;DHT22;2427;50.934;6.776;2023-04-25T16:11:18;15.00;8.40
4826;DHT22;2427;50.934;6.776;2023-04-25T16:13:44;14.90;10.40
4826;DHT22;2427;50.934;6.776;2023-04-25T16:16:10;14.80;10.00
4826;DHT22;2427;50.934;6.776;2023-04-25T16:18:35;14.50;10.20
4826;DHT22;2427;50.934;6.776;2023-04-25T16:21:01;15.20;14.80
4826;DHT22;2427;50.934;6.776;2023-04-25T16:23:27;16.90;21.50
4826;DHT22;2427;50.934;6.776;2023-04-25T16:25:53;18.10;24.70
4826;DHT22;2427;50.934;6.776;2023-04-25T16:28:19;17.50;22.70
4826;DHT22;2427;50.934;6.776;2023-04-25T16:30:45;16.60;17.90
4826;DHT22;2427;50.934;6.776;2023-04-25T16:33:11;15.60;23.70
4826;DHT22;2427;50.934;6.776;2023-04-25T16:35:36;14.70;11.10
4826;DHT22;2427;50.934;6.776;2023-04-25T16:38:02;14.30;10.50